createdAt,value
2022-08-10T00:00:31.454Z,16.41
2022-08-10T00:01:31.466Z,16.43
2022-08-10T00:02:31.490Z,16.25
2022-08-10T00:03:31.426Z,16.24
2022-08-10T00:04:31.378Z,16.27
2022-08-10T00:05:43.338Z,16.31
2022-08-10T00:06:32.338Z,16.38
2022-08-10T00:07:31.395Z,16.27
2022-08-10T00:08:31.326Z,16.28
2022-08-10T00:09:31.308Z,16.17
2022-08-10T00:10:31.318Z,16.23
2022-08-10T00:11:31.281Z,16.24
2022-08-10T00:12:53.581Z,16.23
2022-08-10T00:13:32.294Z,16.20
2022-08-10T00:14:31.267Z,16.24
2022-08-10T00:15:52.646Z,16.25
2022-08-10T00:16:32.237Z,16.17
2022-08-10T00:17:31.213Z,16.15
2022-08-10T00:18:35.889Z,16.20
2022-08-10T00:20:02.469Z,16.25
2022-08-10T00:20:32.202Z,16.14
2022-08-10T00:21:31.187Z,16.12
2022-08-10T00:22:31.252Z,16.09
2022-08-10T00:23:31.147Z,16.15
2022-08-10T00:24:31.138Z,16.11
2022-08-10T00:25:31.153Z,16.01
2022-08-10T00:27:52.952Z,16.04
2022-08-10T00:27:55.579Z,16.04
2022-08-10T00:28:32.159Z,16.02
2022-08-10T00:29:31.080Z,16.04
2022-08-10T00:30:31.136Z,16.02
2022-08-10T00:31:31.076Z,15.93
2022-08-10T00:32:32.107Z,15.92
2022-08-10T00:33:31.059Z,15.94
2022-08-10T00:34:31.025Z,15.90
2022-08-10T00:35:31.016Z,16.00
2022-08-10T00:36:31.760Z,15.89
2022-08-10T00:37:30.992Z,15.96
2022-08-10T00:38:30.998Z,15.78
2022-08-10T00:39:36.018Z,15.90
2022-08-10T00:40:37.092Z,15.87
2022-08-10T00:41:31.979Z,15.89
2022-08-10T00:42:30.985Z,15.97
2022-08-10T00:43:30.939Z,15.90
2022-08-10T00:44:30.926Z,15.94
2022-08-10T00:45:30.902Z,15.94
2022-08-10T00:46:30.913Z,15.93
2022-08-10T00:47:36.788Z,15.96
2022-08-10T00:48:32.026Z,15.96
2022-08-10T00:49:30.870Z,15.93
2022-08-10T00:50:30.870Z,16.02
2022-08-10T00:51:43.153Z,16.04
2022-08-10T00:52:31.951Z,16.04
2022-08-10T00:53:30.820Z,16.04
2022-08-10T00:54:30.840Z,16.02
2022-08-10T00:55:30.809Z,16.04
2022-08-10T00:57:09.993Z,16.02
2022-08-10T00:57:31.804Z,16.05
2022-08-10T00:58:30.793Z,16.01
2022-08-10T00:59:30.766Z,15.93
2022-08-10T01:00:30.750Z,15.94
2022-08-10T01:02:08.826Z,15.93
2022-08-10T01:02:32.335Z,16.02
2022-08-10T01:04:54.388Z,16.11
2022-08-10T01:04:57.474Z,16.02
2022-08-10T01:05:31.701Z,15.92
2022-08-10T01:06:30.687Z,16.00
2022-08-10T01:07:30.676Z,16.02
2022-08-10T01:08:30.652Z,16.02
2022-08-10T01:09:30.659Z,16.05
2022-08-10T01:10:30.635Z,16.02
2022-08-10T01:11:42.347Z,16.02
2022-08-10T01:12:38.697Z,16.07
2022-08-10T01:13:31.592Z,16.05
2022-08-10T01:14:30.582Z,16.04
2022-08-10T01:15:30.569Z,16.07
2022-08-10T01:16:30.581Z,16.05
2022-08-10T01:17:50.258Z,16.07
2022-08-10T01:18:35.883Z,16.04
2022-08-10T01:19:31.524Z,16.08
2022-08-10T01:20:31.233Z,16.09
2022-08-10T01:21:30.502Z,16.04
2022-08-10T01:22:30.515Z,16.08
2022-08-10T01:23:30.491Z,16.11
2022-08-10T01:24:30.507Z,16.07
2022-08-10T01:25:30.458Z,16.09
2022-08-10T01:26:31.897Z,16.11
2022-08-10T01:27:30.443Z,16.07
2022-08-10T01:28:30.456Z,16.08
2022-08-10T01:29:30.457Z,16.07
2022-08-10T01:30:30.432Z,16.08
2022-08-10T01:31:30.400Z,16.04
2022-08-10T01:32:30.382Z,16.05
2022-08-10T01:33:31.987Z,15.96
2022-08-10T01:34:31.387Z,15.96
2022-08-10T01:35:30.388Z,15.96
2022-08-10T01:36:31.872Z,15.96
2022-08-10T01:37:30.329Z,15.93
2022-08-10T01:38:30.314Z,15.96
2022-08-10T01:39:30.383Z,16.07
2022-08-10T01:40:30.307Z,16.01
2022-08-10T01:41:31.511Z,15.97
2022-08-10T01:42:31.268Z,16.01
2022-08-10T01:43:30.263Z,16.07
2022-08-10T01:44:30.253Z,16.02
2022-08-10T01:45:30.235Z,16.07
2022-08-10T01:46:31.254Z,16.05
2022-08-10T01:47:30.217Z,16.11
2022-08-10T01:48:30.202Z,16.04
2022-08-10T01:49:30.256Z,16.05
2022-08-10T01:50:30.187Z,16.11
2022-08-10T01:51:30.174Z,16.12
2022-08-10T01:52:30.182Z,16.11
2022-08-10T01:53:40.820Z,16.20
2022-08-10T01:54:31.145Z,16.21
2022-08-10T01:55:30.158Z,16.14
2022-08-10T01:56:30.139Z,16.15
2022-08-10T01:57:30.114Z,16.12
2022-08-10T01:58:30.111Z,16.15
2022-08-10T01:59:30.081Z,16.15
2022-08-10T02:00:30.099Z,16.08
2022-08-10T02:01:30.111Z,16.11
2022-08-10T02:02:30.046Z,15.97
2022-08-10T02:03:30.053Z,15.97
2022-08-10T02:04:30.025Z,16.01
2022-08-10T02:05:30.010Z,16.05
2022-08-10T02:06:30.063Z,16.02
2022-08-10T02:07:30.010Z,15.93
2022-08-10T02:08:29.985Z,15.96
2022-08-10T02:09:29.985Z,15.96
2022-08-10T02:10:29.957Z,15.92
2022-08-10T02:11:29.945Z,15.87
2022-08-10T02:12:30.973Z,15.94
2022-08-10T02:13:29.929Z,15.94
2022-08-10T02:14:33.207Z,15.96
2022-08-10T02:15:29.920Z,15.97
2022-08-10T02:16:29.890Z,15.93
2022-08-10T02:17:57.071Z,15.92
2022-08-10T02:18:30.908Z,15.94
2022-08-10T02:19:29.862Z,15.96
2022-08-10T02:20:31.440Z,15.96
2022-08-10T02:21:29.834Z,15.94
2022-08-10T02:22:36.060Z,15.93
2022-08-10T02:23:30.813Z,15.93
2022-08-10T02:24:29.814Z,15.94
2022-08-10T02:25:41.156Z,16.07
2022-08-10T02:26:30.785Z,16.04
2022-08-10T02:27:29.775Z,16.05
2022-08-10T02:28:31.112Z,16.01
2022-08-10T02:29:29.745Z,16.08
2022-08-10T02:30:29.752Z,16.05
2022-08-10T02:31:29.782Z,15.96
2022-08-10T02:32:32.976Z,16.02
2022-08-10T02:33:30.698Z,16.04
2022-08-10T02:34:29.701Z,16.09
2022-08-10T02:35:30.658Z,16.23
2022-08-10T02:36:30.691Z,16.28
2022-08-10T02:37:29.674Z,16.17
2022-08-10T02:38:59.038Z,16.23
2022-08-10T02:39:30.688Z,16.27
2022-08-10T02:45:03.021Z,16.35
2022-08-10T02:45:11.044Z,16.30
2022-08-10T02:45:19.192Z,16.34
2022-08-10T02:45:22.914Z,16.34
2022-08-10T02:45:22.915Z,16.31
2022-08-10T02:45:31.722Z,16.42
2022-08-10T02:46:29.587Z,16.34
2022-08-10T02:47:29.571Z,16.41
2022-08-10T02:48:30.567Z,16.43
2022-08-10T02:49:29.559Z,16.28
2022-08-10T02:50:29.555Z,16.42
2022-08-10T02:52:06.955Z,16.31
2022-08-10T02:52:30.496Z,16.31
2022-08-10T02:53:54.477Z,16.38
2022-08-10T02:54:30.469Z,16.31
2022-08-10T02:55:32.343Z,16.39
2022-08-10T02:56:29.455Z,16.33
2022-08-10T02:57:29.433Z,16.27
2022-08-10T02:58:29.434Z,16.27
2022-08-10T02:59:39.762Z,16.27
2022-08-10T03:00:30.451Z,16.28
2022-08-10T03:01:29.481Z,16.34
2022-08-10T03:02:29.391Z,16.28
2022-08-10T03:03:29.366Z,16.34
2022-08-10T03:04:55.791Z,16.39
2022-08-10T03:05:30.344Z,16.24
2022-08-10T03:06:29.364Z,16.28
2022-08-10T03:07:43.722Z,16.34
2022-08-10T03:08:30.333Z,16.39
2022-08-10T03:09:29.305Z,16.34
2022-08-10T03:10:29.324Z,16.34
2022-08-10T03:12:36.472Z,16.41
2022-08-10T03:12:46.988Z,16.34
2022-08-10T03:13:30.333Z,16.39
2022-08-10T03:14:29.251Z,16.34
2022-08-10T03:15:29.250Z,16.35
2022-08-10T03:16:33.188Z,16.46
2022-08-10T03:17:29.224Z,16.41
2022-08-10T03:18:29.234Z,16.45
2022-08-10T03:20:34.465Z,16.46
2022-08-10T03:20:37.514Z,16.38
2022-08-10T03:21:30.194Z,16.46
2022-08-10T03:22:29.167Z,16.53
2022-08-10T03:23:29.174Z,16.46
2022-08-10T03:24:33.002Z,16.46
2022-08-10T03:25:29.144Z,16.50
2022-08-10T03:26:29.124Z,16.58
2022-08-10T03:27:29.098Z,16.50
2022-08-10T03:28:29.094Z,16.43
2022-08-10T03:29:29.113Z,16.46
2022-08-10T03:30:33.298Z,16.45
2022-08-10T03:31:30.052Z,16.52
2022-08-10T03:32:29.062Z,16.41
2022-08-10T03:33:29.064Z,16.49
2022-08-10T03:34:33.487Z,16.45
2022-08-10T03:35:29.011Z,16.45
2022-08-10T03:36:43.071Z,16.48
2022-08-10T03:37:29.987Z,16.45
2022-08-10T03:38:29.002Z,16.42
2022-08-10T03:39:29.121Z,16.45
2022-08-10T03:40:45.602Z,16.39
2022-08-10T03:41:29.973Z,16.48
2022-08-10T03:42:29.942Z,16.38
2022-08-10T03:43:28.929Z,16.39
2022-08-10T03:44:28.912Z,16.41
2022-08-10T03:45:28.905Z,16.30
2022-08-10T03:46:29.887Z,16.41
2022-08-10T03:47:28.924Z,16.30
2022-08-10T03:48:44.772Z,16.39
2022-08-10T03:49:29.867Z,16.28
2022-08-10T03:50:50.771Z,16.35
2022-08-10T03:51:29.841Z,16.27
2022-08-10T03:52:28.861Z,16.27
2022-08-10T03:54:05.038Z,16.38
2022-08-10T03:54:29.797Z,16.34
2022-08-10T03:56:29.056Z,16.28
2022-08-10T03:56:32.220Z,16.33
2022-08-10T03:57:28.792Z,16.38
2022-08-10T03:58:28.804Z,16.30
2022-08-10T03:59:28.740Z,16.30
2022-08-10T04:00:28.848Z,16.41
2022-08-10T04:02:46.823Z,16.39
2022-08-10T04:02:52.197Z,16.33
2022-08-10T04:03:29.692Z,16.23
2022-08-10T04:04:28.746Z,16.41
2022-08-10T04:05:38.514Z,16.39
2022-08-10T04:06:29.677Z,16.33
2022-08-10T04:07:28.659Z,16.30
2022-08-10T04:08:28.655Z,16.33
2022-08-10T04:09:43.017Z,16.23
2022-08-10T04:10:29.640Z,16.24
2022-08-10T04:11:28.621Z,16.38
2022-08-10T04:12:28.624Z,16.28
2022-08-10T04:13:28.598Z,16.28
2022-08-10T04:14:38.221Z,16.25
2022-08-10T04:15:29.872Z,16.34
2022-08-10T04:16:28.548Z,16.30
2022-08-10T04:18:02.831Z,16.33
2022-08-10T04:18:29.541Z,16.27
2022-08-10T04:19:28.524Z,16.27
2022-08-10T04:20:29.924Z,16.28
2022-08-10T04:21:29.499Z,16.21
2022-08-10T04:22:28.509Z,16.27
2022-08-10T04:23:28.490Z,16.21
2022-08-10T04:24:29.944Z,16.25
2022-08-10T04:25:28.476Z,16.23
2022-08-10T04:26:28.435Z,16.24
2022-08-10T04:27:28.447Z,16.23
2022-08-10T04:28:28.868Z,16.24
2022-08-10T04:29:28.405Z,16.17
2022-08-10T04:30:28.410Z,16.24
2022-08-10T04:31:28.380Z,16.23
2022-08-10T04:32:28.366Z,16.17
2022-08-10T04:33:28.356Z,16.30
2022-08-10T04:34:28.369Z,16.20
2022-08-10T04:35:28.341Z,16.28
2022-08-10T04:36:28.352Z,16.27
2022-08-10T04:37:28.310Z,16.28
2022-08-10T04:38:28.828Z,16.24
2022-08-10T04:39:28.346Z,16.30
2022-08-10T04:40:30.718Z,16.33
2022-08-10T04:41:28.280Z,16.34
2022-08-10T04:42:28.293Z,16.38
2022-08-10T04:43:28.246Z,16.42
2022-08-10T04:44:28.231Z,16.33
2022-08-10T04:45:48.716Z,16.30
2022-08-10T04:46:55.267Z,16.35
2022-08-10T04:47:57.490Z,16.24
2022-08-10T04:48:42.018Z,16.42
2022-08-10T04:49:55.165Z,16.28
2022-08-10T04:50:29.162Z,16.33
2022-08-10T04:51:28.181Z,16.38
2022-08-10T04:52:28.154Z,16.28
2022-08-10T04:53:28.170Z,16.39
2022-08-10T04:54:29.893Z,16.38
2022-08-10T04:55:28.109Z,16.43
2022-08-10T04:56:31.579Z,16.35
2022-08-10T04:57:28.144Z,16.56
2022-08-10T04:58:28.091Z,16.43
2022-08-10T04:59:28.094Z,16.53
2022-08-10T05:00:28.062Z,16.50
2022-08-10T05:01:37.781Z,16.70
2022-08-10T05:02:32.214Z,16.63
2022-08-10T05:03:28.024Z,16.68
2022-08-10T05:04:36.731Z,16.73
2022-08-10T05:05:28.995Z,16.73
2022-08-10T05:06:28.038Z,16.81
2022-08-10T05:07:27.974Z,16.81
2022-08-10T05:08:27.985Z,16.76
2022-08-10T05:09:27.967Z,16.81
2022-08-10T05:10:27.961Z,16.85
2022-08-10T05:11:27.930Z,16.93
2022-08-10T05:12:28.072Z,16.96
2022-08-10T05:13:27.918Z,16.94
2022-08-10T05:14:27.895Z,16.97
2022-08-10T05:15:27.915Z,16.97
2022-08-10T05:16:32.041Z,17.07
2022-08-10T05:17:27.870Z,16.97
2022-08-10T05:18:27.911Z,17.06
2022-08-10T05:20:03.945Z,17.03
2022-08-10T05:20:28.852Z,17.01
2022-08-10T05:21:57.037Z,17.03
2022-08-10T05:22:28.805Z,17.01
2022-08-10T05:23:27.819Z,17.01
2022-08-10T05:24:27.782Z,17.00
2022-08-10T05:25:27.791Z,17.06
2022-08-10T05:26:27.782Z,17.03
2022-08-10T05:27:27.766Z,17.11
2022-08-10T05:28:27.852Z,17.08
2022-08-10T05:29:28.747Z,17.11
2022-08-10T05:30:27.724Z,17.16
2022-08-10T05:31:27.706Z,17.16
2022-08-10T05:32:27.714Z,17.23
2022-08-10T05:33:27.711Z,17.25
2022-08-10T05:34:27.716Z,17.26
2022-08-10T05:35:27.679Z,17.23
2022-08-10T05:36:27.666Z,17.31
2022-08-10T05:38:13.231Z,17.37
2022-08-10T05:38:28.624Z,17.41
2022-08-10T05:39:31.927Z,17.37
2022-08-10T05:40:27.650Z,17.40
2022-08-10T05:41:27.594Z,17.37
2022-08-10T05:42:27.633Z,17.51
2022-08-10T05:43:27.609Z,17.49
2022-08-10T05:44:27.578Z,17.52
2022-08-10T05:45:27.587Z,17.59
2022-08-10T05:46:27.579Z,17.51
2022-08-10T05:47:27.537Z,17.49
2022-08-10T05:48:53.835Z,17.59
2022-08-10T05:49:28.504Z,17.56
2022-08-10T05:50:27.514Z,17.71
2022-08-10T05:51:27.486Z,17.77
2022-08-10T05:52:27.561Z,17.75
2022-08-10T05:54:01.746Z,17.86
2022-08-10T05:54:28.478Z,17.84
2022-08-10T05:55:27.448Z,17.86
2022-08-10T05:56:27.426Z,17.92
2022-08-10T05:57:28.422Z,17.95
2022-08-10T05:58:27.405Z,18.00
2022-08-10T06:00:29.528Z,18.02
2022-08-10T06:00:36.826Z,18.02
2022-08-10T06:01:28.420Z,18.10
2022-08-10T06:02:41.506Z,18.05
2022-08-10T06:03:28.362Z,18.26
2022-08-10T06:04:27.343Z,18.23
2022-08-10T06:05:27.360Z,18.14
2022-08-10T06:06:27.333Z,18.12
2022-08-10T06:07:27.419Z,18.12
2022-08-10T06:08:27.343Z,18.21
2022-08-10T06:09:27.282Z,18.27
2022-08-10T06:10:31.390Z,18.26
2022-08-10T06:12:27.166Z,18.23
2022-08-10T06:12:30.129Z,18.33
2022-08-10T06:13:34.225Z,18.33
2022-08-10T06:14:28.602Z,18.44
2022-08-10T06:15:50.967Z,18.44
2022-08-10T06:16:28.225Z,18.48
2022-08-10T06:17:27.203Z,18.47
2022-08-10T06:18:27.210Z,18.50
2022-08-10T06:19:27.174Z,18.57
2022-08-10T06:20:27.187Z,18.50
2022-08-10T06:21:27.161Z,18.51
2022-08-10T06:22:27.275Z,18.63
2022-08-10T06:23:27.154Z,18.62
2022-08-10T06:24:30.206Z,18.60
2022-08-10T06:26:08.490Z,18.65
2022-08-10T06:26:28.117Z,18.76
2022-08-10T06:27:34.448Z,18.73
2022-08-10T06:28:28.089Z,18.78
2022-08-10T06:29:27.083Z,18.80
2022-08-10T06:30:27.047Z,18.82
2022-08-10T06:31:27.061Z,18.84
2022-08-10T06:32:27.102Z,18.80
2022-08-10T06:33:27.030Z,18.84
2022-08-10T06:34:27.039Z,18.90
2022-08-10T06:35:27.022Z,18.88
2022-08-10T06:36:26.987Z,18.98
2022-08-10T06:37:27.993Z,18.99
2022-08-10T06:38:26.964Z,18.98
2022-08-10T06:39:35.683Z,19.11
2022-08-10T06:40:28.021Z,19.08
2022-08-10T06:42:14.306Z,19.16
2022-08-10T06:42:27.966Z,19.18
2022-08-10T06:43:26.898Z,19.21
2022-08-10T06:44:26.908Z,19.22
2022-08-10T06:45:26.884Z,19.26
2022-08-10T06:46:26.892Z,19.29
2022-08-10T06:47:26.888Z,19.28
2022-08-10T06:48:26.843Z,19.40
2022-08-10T06:49:26.841Z,19.41
2022-08-10T06:50:44.702Z,19.50
2022-08-10T06:51:27.806Z,19.44
2022-08-10T06:52:26.794Z,19.56
2022-08-10T06:53:54.202Z,19.58
2022-08-10T06:54:27.804Z,19.58
2022-08-10T06:55:39.859Z,19.56
2022-08-10T06:56:38.065Z,19.62
2022-08-10T06:57:27.737Z,19.65
2022-08-10T06:58:27.238Z,19.69
2022-08-10T06:59:26.725Z,19.77
2022-08-10T07:00:33.359Z,19.77
2022-08-10T07:01:27.762Z,19.95
2022-08-10T07:02:26.800Z,19.84
2022-08-10T07:03:26.698Z,19.98
2022-08-10T07:04:32.713Z,19.98
2022-08-10T07:05:27.663Z,20.01
2022-08-10T07:06:26.655Z,20.03
2022-08-10T07:07:26.660Z,20.10
2022-08-10T07:08:26.624Z,20.13
2022-08-10T07:09:26.605Z,20.10
2022-08-10T07:10:45.466Z,20.20
2022-08-10T07:11:27.607Z,20.29
2022-08-10T07:12:26.639Z,20.29
2022-08-10T07:14:16.432Z,20.26
2022-08-10T07:14:27.544Z,20.26
2022-08-10T07:15:59.998Z,20.33
2022-08-10T07:16:27.569Z,20.39
2022-08-10T07:17:26.515Z,20.41
2022-08-10T07:18:26.646Z,20.28
2022-08-10T07:19:26.504Z,20.39
2022-08-10T07:20:26.500Z,20.43
2022-08-10T07:21:26.469Z,20.47
2022-08-10T07:23:08.239Z,20.55
2022-08-10T07:23:58.805Z,20.58
2022-08-10T07:24:27.465Z,20.64
2022-08-10T07:25:26.450Z,20.64
2022-08-10T07:26:26.411Z,20.74
2022-08-10T07:27:26.403Z,20.79
2022-08-10T07:28:27.421Z,20.84
2022-08-10T07:29:53.608Z,20.91
2022-08-10T07:30:27.438Z,20.88
2022-08-10T07:31:54.508Z,20.82
2022-08-10T07:32:27.407Z,20.94
2022-08-10T07:33:26.414Z,20.82
2022-08-10T07:34:29.475Z,20.91
2022-08-10T07:35:26.333Z,20.84
2022-08-10T07:36:26.313Z,20.85
2022-08-10T07:37:26.318Z,20.89
2022-08-10T07:38:26.279Z,20.88
2022-08-10T07:40:02.704Z,20.91
2022-08-10T07:40:27.340Z,20.89
2022-08-10T07:41:26.250Z,20.92
2022-08-10T07:42:26.258Z,20.99
2022-08-10T07:43:26.356Z,21.07
2022-08-10T07:44:26.256Z,20.92
2022-08-10T07:45:26.206Z,21.09
2022-08-10T07:46:26.206Z,21.13
2022-08-10T07:47:53.116Z,21.19
2022-08-10T07:48:27.167Z,21.25
2022-08-10T07:49:26.161Z,21.25
2022-08-10T07:50:26.194Z,21.35
2022-08-10T07:51:26.139Z,21.44
2022-08-10T07:52:26.212Z,21.38
2022-08-10T07:53:26.129Z,21.58
2022-08-10T07:54:26.133Z,21.58
2022-08-10T07:56:05.411Z,21.62
2022-08-10T07:56:47.794Z,21.72
2022-08-10T07:57:31.097Z,21.71
2022-08-10T07:58:27.070Z,21.71
2022-08-10T07:59:26.062Z,21.82
2022-08-10T08:00:26.087Z,21.72
2022-08-10T08:01:26.078Z,21.82
2022-08-10T08:02:26.017Z,21.86
2022-08-10T08:03:26.063Z,21.84
2022-08-10T08:04:25.993Z,21.92
2022-08-10T08:05:51.877Z,21.91
2022-08-10T08:06:27.025Z,22.03
2022-08-10T08:07:25.964Z,22.00
2022-08-10T08:08:25.948Z,22.06
2022-08-10T08:09:25.951Z,22.06
2022-08-10T08:10:25.933Z,22.06
2022-08-10T08:11:26.696Z,22.03
2022-08-10T08:12:25.938Z,22.15
2022-08-10T08:13:25.897Z,22.15
2022-08-10T08:14:25.919Z,22.25
2022-08-10T08:16:17.750Z,22.28
2022-08-10T08:16:26.862Z,22.28
2022-08-10T08:17:25.867Z,22.27
2022-08-10T08:18:26.837Z,22.31
2022-08-10T08:19:28.126Z,22.33
2022-08-10T08:20:26.825Z,22.33
2022-08-10T08:24:04.926Z,22.36
2022-08-10T08:24:09.603Z,22.45
2022-08-10T08:24:10.315Z,22.49
2022-08-10T08:24:32.676Z,22.62
2022-08-10T08:25:26.785Z,22.62
2022-08-10T08:26:25.767Z,22.60
2022-08-10T08:27:25.742Z,22.58
2022-08-10T08:28:25.760Z,22.64
2022-08-10T08:29:25.714Z,22.61
2022-08-10T08:30:27.060Z,22.62
2022-08-10T08:31:25.694Z,22.64
2022-08-10T08:32:25.702Z,22.80
2022-08-10T08:33:42.529Z,22.82
2022-08-10T08:34:26.661Z,22.90
2022-08-10T08:35:25.648Z,22.92
2022-08-10T08:36:25.661Z,22.83
2022-08-10T08:38:26.652Z,22.68
2022-08-10T08:38:32.296Z,22.82
2022-08-10T08:39:26.735Z,22.72
2022-08-10T08:40:25.617Z,22.73
2022-08-10T08:41:25.582Z,22.79
2022-08-10T08:42:25.599Z,22.80
2022-08-10T08:43:31.135Z,22.80
2022-08-10T08:44:26.580Z,22.88
2022-08-10T08:45:25.554Z,22.92
2022-08-10T08:46:25.563Z,22.92
2022-08-10T08:48:04.237Z,22.92
2022-08-10T08:48:26.504Z,22.98
2022-08-10T08:50:07.491Z,23.01
2022-08-10T08:50:26.505Z,22.98
2022-08-10T08:52:09.832Z,22.98
2022-08-10T08:52:26.482Z,23.01
2022-08-10T08:53:25.504Z,23.04
2022-08-10T08:54:26.444Z,22.95
2022-08-10T08:56:04.946Z,22.94
2022-08-10T08:56:26.421Z,23.00
2022-08-10T08:57:49.319Z,22.98
2022-08-10T08:58:26.402Z,23.04
2022-08-10T08:59:25.388Z,23.00
2022-08-10T09:00:25.415Z,23.05
2022-08-10T09:01:37.953Z,23.05
2022-08-10T09:02:33.409Z,23.13
2022-08-10T09:03:28.330Z,23.15
2022-08-10T09:04:25.329Z,23.23
2022-08-10T09:05:26.042Z,23.19
2022-08-10T09:06:25.345Z,23.20
2022-08-10T09:08:00.433Z,23.19
2022-08-10T09:08:26.292Z,23.16
2022-08-10T09:09:25.278Z,23.32
2022-08-10T09:10:25.263Z,23.38
2022-08-10T09:11:25.281Z,23.57
2022-08-10T09:12:25.248Z,23.65
2022-08-10T09:13:25.249Z,23.68
2022-08-10T09:14:25.842Z,23.51
2022-08-10T09:15:39.523Z,23.55
2022-08-10T09:16:26.228Z,23.65
2022-08-10T09:17:25.209Z,23.61
2022-08-10T09:18:25.186Z,23.57
2022-08-10T09:19:36.280Z,23.68
2022-08-10T09:20:26.159Z,23.66
2022-08-10T09:21:25.180Z,23.65
2022-08-10T09:22:25.132Z,23.60
2022-08-10T09:24:05.379Z,23.60
2022-08-10T09:24:26.250Z,23.53
2022-08-10T09:25:25.095Z,23.54
2022-08-10T09:26:25.084Z,23.61
2022-08-10T09:27:25.079Z,23.57
2022-08-10T09:28:26.858Z,23.65
2022-08-10T09:29:25.059Z,23.58
2022-08-10T09:30:25.994Z,23.68
2022-08-10T09:31:26.203Z,23.75
2022-08-10T09:35:39.936Z,23.75
2022-08-10T09:36:22.446Z,23.63
2022-08-10T09:36:24.606Z,23.75
2022-08-10T09:36:26.173Z,23.84
2022-08-10T09:36:32.654Z,23.91
2022-08-10T09:37:42.512Z,23.91
2022-08-10T09:38:25.990Z,24.03
2022-08-10T09:40:56.203Z,23.93
2022-08-10T09:41:00.576Z,23.93
2022-08-10T09:41:25.934Z,24.02
2022-08-10T09:42:24.935Z,24.03
2022-08-10T09:43:26.419Z,24.10
2022-08-10T09:44:24.921Z,24.13
2022-08-10T09:45:24.886Z,24.22
2022-08-10T09:46:27.463Z,24.16
2022-08-10T09:48:02.484Z,24.30
2022-08-10T09:48:25.841Z,24.27
2022-08-10T09:49:52.926Z,24.28
2022-08-10T09:50:25.856Z,24.30
2022-08-10T09:52:25.870Z,24.21
2022-08-10T09:53:24.803Z,24.21
2022-08-10T09:54:24.774Z,24.13
2022-08-10T09:55:24.761Z,24.09
2022-08-10T09:56:28.735Z,24.03
2022-08-10T09:57:44.231Z,24.05
2022-08-10T09:58:25.770Z,24.08
2022-08-10T09:59:26.816Z,23.97
2022-08-10T10:00:25.718Z,23.85
2022-08-10T10:02:00.689Z,23.79
2022-08-10T10:02:25.696Z,23.91
2022-08-10T10:03:26.177Z,23.90
2022-08-10T10:04:24.716Z,23.95
2022-08-10T10:05:24.658Z,24.08
2022-08-10T10:06:24.662Z,24.06
2022-08-10T10:07:24.670Z,24.08
2022-08-10T10:08:24.641Z,24.28
2022-08-10T10:09:26.824Z,24.28
2022-08-10T10:10:24.647Z,24.30
2022-08-10T10:11:24.656Z,24.34
2022-08-10T10:12:24.603Z,24.40
2022-08-10T10:13:52.806Z,24.53
2022-08-10T10:14:25.711Z,24.52
2022-08-10T10:15:25.873Z,24.55
2022-08-10T10:16:24.576Z,24.58
2022-08-10T10:17:24.521Z,24.60
2022-08-10T10:18:24.508Z,24.58
2022-08-10T10:19:24.514Z,24.37
2022-08-10T10:20:24.506Z,24.32
2022-08-10T10:21:55.711Z,24.25
2022-08-10T10:22:25.520Z,24.16
2022-08-10T10:23:24.469Z,24.05
2022-08-10T10:24:24.447Z,23.94
2022-08-10T10:25:24.452Z,23.91
2022-08-10T10:26:25.454Z,23.87
2022-08-10T10:27:24.429Z,23.88
2022-08-10T10:28:24.455Z,23.85
2022-08-10T10:29:56.309Z,23.85
2022-08-10T10:30:25.380Z,23.87
2022-08-10T10:31:24.372Z,23.85
2022-08-10T10:32:24.394Z,23.88
2022-08-10T10:33:24.369Z,23.90
2022-08-10T10:34:24.338Z,23.84
2022-08-10T10:35:24.319Z,23.84
2022-08-10T10:36:24.324Z,23.79
2022-08-10T10:38:02.706Z,23.88
2022-08-10T10:38:25.294Z,23.80
2022-08-10T10:39:24.524Z,23.80
2022-08-10T10:40:24.330Z,23.76
2022-08-10T10:41:24.266Z,23.78
2022-08-10T10:42:44.455Z,23.80
2022-08-10T10:43:25.256Z,23.83
2022-08-10T10:44:24.255Z,23.84
2022-08-10T10:45:24.269Z,23.85
2022-08-10T10:46:24.258Z,23.83
2022-08-10T10:47:24.192Z,23.87
2022-08-10T10:48:29.369Z,23.87
2022-08-10T10:49:25.161Z,23.80
2022-08-10T10:50:24.187Z,23.83
2022-08-10T10:51:24.185Z,23.85
2022-08-10T10:52:24.148Z,23.97
2022-08-10T10:53:24.134Z,24.03
2022-08-10T10:54:24.125Z,24.06
2022-08-10T10:55:24.114Z,24.10
2022-08-10T10:56:24.132Z,24.18
2022-08-10T10:57:24.075Z,24.34
2022-08-10T10:58:28.284Z,24.35
2022-08-10T10:59:54.959Z,24.45
2022-08-10T11:00:25.088Z,24.55
2022-08-10T11:01:24.090Z,24.67
2022-08-10T11:02:24.067Z,24.60
2022-08-10T11:03:24.018Z,24.64
2022-08-10T11:04:23.998Z,24.64
2022-08-10T11:05:23.995Z,24.71
2022-08-10T11:06:39.189Z,24.68
2022-08-10T11:07:33.638Z,24.71
2022-08-10T11:08:28.669Z,24.76
2022-08-10T11:10:04.544Z,24.78
2022-08-10T11:10:32.632Z,24.80
2022-08-10T11:12:01.398Z,24.85
2022-08-10T11:12:26.295Z,24.90
2022-08-10T11:14:23.071Z,24.81
2022-08-10T11:14:29.243Z,24.80
2022-08-10T11:15:23.903Z,24.83
2022-08-10T11:16:23.878Z,24.93
2022-08-10T11:17:23.872Z,24.96
2022-08-10T11:18:23.846Z,24.96
2022-08-10T11:19:23.833Z,24.98
2022-08-10T11:20:23.876Z,24.98
2022-08-10T11:21:23.823Z,24.96
2022-08-10T11:22:23.812Z,25.02
2022-08-10T11:23:23.812Z,24.95
2022-08-10T11:24:47.459Z,25.03
2022-08-10T11:25:24.859Z,25.05
2022-08-10T11:26:23.759Z,24.99
2022-08-10T11:27:23.820Z,25.03
2022-08-10T11:28:23.775Z,25.00
2022-08-10T11:29:23.772Z,24.91
2022-08-10T11:30:23.712Z,24.96
2022-08-10T11:31:23.709Z,24.93
2022-08-10T11:32:23.694Z,24.99
2022-08-10T11:33:32.693Z,24.96
2022-08-10T11:34:47.783Z,24.91
2022-08-10T11:35:24.658Z,24.95
2022-08-10T11:36:23.648Z,24.98
2022-08-10T11:37:23.636Z,24.96
2022-08-10T11:38:30.998Z,25.06
2022-08-10T11:39:24.739Z,25.15
2022-08-10T11:40:23.617Z,25.05
2022-08-10T11:42:12.442Z,25.10
2022-08-10T11:42:33.443Z,25.10
2022-08-10T11:43:24.614Z,25.14
2022-08-10T11:44:23.568Z,25.30
2022-08-10T11:45:23.556Z,25.36
2022-08-10T11:46:28.848Z,25.36
2022-08-10T11:47:24.527Z,25.43
2022-08-10T11:48:54.659Z,25.36
2022-08-10T11:49:24.506Z,25.38
2022-08-10T11:50:23.505Z,25.35
2022-08-10T11:51:23.490Z,25.38
2022-08-10T11:52:23.499Z,25.38
2022-08-10T11:53:23.462Z,25.38
2022-08-10T11:54:23.450Z,25.42
2022-08-10T11:55:23.454Z,25.36
2022-08-10T11:56:23.434Z,25.28
2022-08-10T11:57:23.460Z,25.32
2022-08-10T11:58:23.435Z,25.39
2022-08-10T11:59:23.446Z,25.39
2022-08-10T12:00:23.471Z,25.47
2022-08-10T12:01:23.383Z,25.46
2022-08-10T12:02:23.406Z,25.42
2022-08-10T12:03:23.382Z,25.47
2022-08-10T12:04:23.381Z,25.54
2022-08-10T12:05:23.858Z,25.55
2022-08-10T12:06:52.022Z,25.51
2022-08-10T12:10:03.617Z,25.52
2022-08-10T12:10:11.307Z,25.55
2022-08-10T12:10:11.451Z,25.52
2022-08-10T12:10:24.272Z,25.57
2022-08-10T12:11:24.810Z,25.47
2022-08-10T12:12:23.324Z,25.52
2022-08-10T12:13:23.285Z,25.52
2022-08-10T12:14:23.367Z,25.38
2022-08-10T12:15:23.235Z,25.54
2022-08-10T12:16:23.211Z,25.58
2022-08-10T12:17:23.192Z,25.57
2022-08-10T12:18:23.219Z,25.70
2022-08-10T12:19:23.209Z,25.73
2022-08-10T12:20:23.193Z,25.83
2022-08-10T12:21:23.154Z,25.92
2022-08-10T12:22:23.195Z,26.06
2022-08-10T12:23:23.143Z,26.09
2022-08-10T12:24:23.122Z,26.25
2022-08-10T12:25:56.663Z,26.33
2022-08-10T12:26:24.147Z,26.35
2022-08-10T12:27:23.130Z,26.29
2022-08-10T12:28:23.070Z,26.33
2022-08-10T12:29:25.525Z,26.36
2022-08-10T12:30:23.059Z,26.28
2022-08-10T12:31:23.060Z,26.23
2022-08-10T12:32:25.473Z,26.20
2022-08-10T12:33:23.062Z,26.20
2022-08-10T12:34:23.085Z,26.13
2022-08-10T12:35:26.042Z,26.09
2022-08-10T12:36:22.987Z,26.15
2022-08-10T12:37:23.016Z,26.28
2022-08-10T12:38:22.990Z,26.25
2022-08-10T12:39:23.060Z,26.30
2022-08-10T12:40:38.482Z,26.36
2022-08-10T12:41:43.979Z,26.25
2022-08-10T12:42:37.078Z,26.33
2022-08-10T12:44:07.187Z,26.25
2022-08-10T12:44:23.894Z,26.29
2022-08-10T12:45:23.892Z,26.36
2022-08-10T12:46:22.962Z,26.36
2022-08-10T12:47:22.889Z,26.35
2022-08-10T12:48:22.903Z,26.37
2022-08-10T12:49:23.842Z,26.32
2022-08-10T12:50:33.016Z,26.35
2022-08-10T12:51:23.835Z,26.29
2022-08-10T12:52:22.814Z,26.17
2022-08-10T12:53:22.798Z,26.32